Terminal Aerodrome Forecast
Issued by NWS North Platte, NE

Home | Current Version | Previous Version | Text Only | Print | Product List | Glossary On
Versions: 1 2 3 4 5 6 7 8 9 10 11 12 13 14 15 16 17 18 19 20 21 22 23 24 25 26 27 28 29 30
000
FTUS43 KLBF 261100
TAFLBF
TAF
KLBF 261120Z 2612/2712 11011KT P6SM OVC006
      TEMPO 2613/2615 SCT006 OVC015
     FM261500 10012KT P6SM OVC015
     FM262100 09010KT P6SM BKN025
     FM270200 08006KT P6SM OVC050=

USA.gov is the U.S. government's official web portal to all federal, state and local government web resources and services.